createdAt,value
2022-11-24T00:01:22.458Z,100195.84
2022-11-24T00:04:02.872Z,100196.72
2022-11-24T00:06:32.323Z,100207.09
2022-11-24T00:08:59.993Z,100205.38
2022-11-24T00:11:32.995Z,100201.97
2022-11-24T00:14:01.745Z,100207.16
2022-11-24T00:16:31.538Z,100212.34
2022-11-24T00:19:00.799Z,100205.50
2022-11-24T00:21:30.368Z,100216.72
2022-11-24T00:23:58.721Z,100222.78
2022-11-24T00:26:32.103Z,100229.66
2022-11-24T00:29:03.021Z,100225.34
2022-11-24T00:31:33.635Z,100221.91
2022-11-24T00:34:03.565Z,100219.31
2022-11-24T00:36:33.260Z,100218.44
2022-11-24T00:39:03.384Z,100222.78
2022-11-24T00:41:31.897Z,100222.78
2022-11-24T00:44:00.127Z,100227.13
2022-11-24T00:46:28.543Z,100232.28
2022-11-24T00:48:56.593Z,100240.06
2022-11-24T00:51:27.022Z,100246.94
2022-11-24T00:53:56.370Z,100234.88
2022-11-24T00:56:24.841Z,100235.72
2022-11-24T00:58:52.989Z,100233.16
2022-11-24T01:01:23.605Z,100225.41
2022-11-24T01:03:51.816Z,100240.06
2022-11-24T01:06:22.041Z,100250.41
2022-11-24T01:08:49.855Z,100261.63
2022-11-24T01:11:18.765Z,100269.38
2022-11-24T01:13:48.753Z,100259.03
2022-11-24T01:16:16.312Z,100267.69
2022-11-24T01:18:44.157Z,100249.59
2022-11-24T01:21:11.806Z,100260.78
2022-11-24T01:23:39.564Z,100251.28
2022-11-24T01:26:08.876Z,100259.94
2022-11-24T01:28:40.564Z,100259.91
2022-11-24T01:31:11.846Z,100268.56
2022-11-24T01:33:39.877Z,100266.81
2022-11-24T01:36:08.178Z,100260.78
2022-11-24T01:38:35.843Z,100275.44
2022-11-24T01:41:08.217Z,100271.97
2022-11-24T01:43:35.892Z,100273.69
2022-11-24T01:46:16.057Z,100281.44
2022-11-24T01:48:49.871Z,100271.09
2022-11-24T01:51:30.395Z,100275.41
2022-11-24T01:54:01.843Z,100269.38
2022-11-24T01:56:29.753Z,100261.59
2022-11-24T01:59:00.663Z,100282.28
2022-11-24T02:01:29.303Z,100286.56
2022-11-24T02:03:58.208Z,100281.41
2022-11-24T02:06:30.317Z,100279.66
2022-11-24T02:09:09.062Z,100281.34
2022-11-24T02:11:39.843Z,100270.16
2022-11-24T02:14:10.481Z,100277.88
2022-11-24T02:16:40.589Z,100273.59
2022-11-24T02:19:19.337Z,100297.72
2022-11-24T02:21:46.912Z,100287.38
2022-11-24T02:24:25.662Z,100289.09
2022-11-24T02:26:53.226Z,100283.06
2022-11-24T02:29:21.512Z,100286.50
2022-11-24T02:31:56.171Z,100296.84
2022-11-24T02:34:23.937Z,100302.03
2022-11-24T02:36:51.478Z,100287.31
2022-11-24T02:39:19.090Z,100290.78
2022-11-24T02:41:54.911Z,100305.44
2022-11-24T02:44:26.565Z,100289.91
2022-11-24T02:47:07.923Z,100303.72
2022-11-24T02:49:35.578Z,100312.34
2022-11-24T02:52:03.722Z,100297.69
2022-11-24T02:54:32.217Z,100301.97
2022-11-24T02:57:00.302Z,100302.84
2022-11-24T02:59:27.887Z,100302.84
2022-11-24T03:01:55.547Z,100289.91
2022-11-24T03:04:23.186Z,100303.69
2022-11-24T03:06:50.816Z,100311.47
2022-11-24T03:09:18.423Z,100302.81
2022-11-24T03:11:46.036Z,100317.50
2022-11-24T03:14:13.605Z,100313.19
2022-11-24T03:16:41.153Z,100315.75
2022-11-24T03:19:08.720Z,100315.75
2022-11-24T03:21:37.928Z,100313.22
2022-11-24T03:24:05.825Z,100330.47
2022-11-24T03:26:35.283Z,100321.00
2022-11-24T03:29:02.885Z,100315.81
2022-11-24T03:31:30.565Z,100320.13
2022-11-24T03:33:58.224Z,100314.94
2022-11-24T03:36:25.833Z,100308.91
2022-11-24T03:38:53.806Z,100312.34
2022-11-24T03:41:21.771Z,100318.41
2022-11-24T03:43:49.329Z,100312.38
2022-11-24T03:46:17.003Z,100318.44
2022-11-24T03:48:44.750Z,100316.69
2022-11-24T03:51:12.383Z,100320.16
2022-11-24T03:53:39.976Z,100327.91
2022-11-24T03:56:07.915Z,100307.19
2022-11-24T03:58:35.507Z,100319.28
2022-11-24T04:01:03.567Z,100338.25
2022-11-24T04:03:31.182Z,100328.72
2022-11-24T04:05:58.728Z,100337.38
2022-11-24T04:08:26.402Z,100343.41
2022-11-24T04:10:55.288Z,100348.59
2022-11-24T04:13:24.813Z,100356.34
2022-11-24T04:15:53.024Z,100345.13
2022-11-24T04:18:20.984Z,100351.16
2022-11-24T04:20:51.434Z,100363.25
2022-11-24T04:23:19.807Z,100365.84
2022-11-24T04:25:47.601Z,100362.38
2022-11-24T04:28:15.092Z,100354.63
2022-11-24T04:30:44.715Z,100376.22
2022-11-24T04:33:13.389Z,100393.50
2022-11-24T04:35:40.908Z,100393.50
2022-11-24T04:38:08.363Z,100400.41
2022-11-24T04:40:35.913Z,100399.56
2022-11-24T04:43:03.379Z,100398.69
2022-11-24T04:45:30.886Z,100412.53
2022-11-24T04:47:58.373Z,100410.78
2022-11-24T04:50:25.864Z,100426.31
2022-11-24T04:52:53.575Z,100427.19
2022-11-24T04:55:21.031Z,100434.09
2022-11-24T04:57:48.597Z,100436.69
2022-11-24T05:00:16.365Z,100442.75
2022-11-24T05:02:43.819Z,100453.97
2022-11-24T05:05:11.546Z,100447.06
2022-11-24T05:07:39.252Z,100462.59
2022-11-24T05:10:25.021Z,100460.88
2022-11-24T05:12:59.506Z,100471.22
2022-11-24T05:15:27.668Z,100475.53
2022-11-24T05:17:55.517Z,100480.69
2022-11-24T05:20:23.221Z,100481.56
2022-11-24T05:22:50.758Z,100488.44
2022-11-24T05:25:18.660Z,100494.44
2022-11-24T05:27:46.177Z,100496.19
2022-11-24T05:30:14.284Z,100489.28
2022-11-24T05:32:42.074Z,100509.09
2022-11-24T05:35:11.061Z,100512.56
2022-11-24T05:37:39.039Z,100511.66
2022-11-24T05:40:07.228Z,100521.16
2022-11-24T05:42:47.848Z,100522.88
2022-11-24T05:45:20.484Z,100533.22
2022-11-24T05:47:48.859Z,100533.25
2022-11-24T05:50:18.486Z,100540.16
2022-11-24T05:52:46.551Z,100548.75
2022-11-24T05:55:15.681Z,100552.22
2022-11-24T05:57:43.609Z,100551.34
2022-11-24T06:00:11.845Z,100565.13
2022-11-24T06:02:39.443Z,100559.13
2022-11-24T06:05:07.328Z,100566.88
2022-11-24T06:07:34.888Z,100578.06
2022-11-24T06:10:02.452Z,100577.22
2022-11-24T06:12:29.884Z,100579.81
2022-11-24T06:14:57.418Z,100585.81
2022-11-24T06:17:25.340Z,100590.13
2022-11-24T06:19:52.784Z,100590.16
2022-11-24T06:22:20.331Z,100603.09
2022-11-24T06:24:50.193Z,100603.94
2022-11-24T06:27:17.969Z,100604.75
2022-11-24T06:29:45.560Z,100612.53
2022-11-24T06:32:13.113Z,100622.03
2022-11-24T06:34:40.751Z,100621.19
2022-11-24T06:37:08.336Z,100626.38
2022-11-24T06:39:35.918Z,100635.88
2022-11-24T06:42:04.670Z,100634.16
2022-11-24T06:44:32.576Z,100646.22
2022-11-24T06:47:00.388Z,100640.19
2022-11-24T06:49:27.984Z,100649.63
2022-11-24T06:51:56.581Z,100656.59
2022-11-24T06:54:24.099Z,100653.09
2022-11-24T06:56:57.477Z,100668.66
2022-11-24T06:59:25.073Z,100667.81
2022-11-24T07:01:52.549Z,100679.03
2022-11-24T07:04:20.258Z,100677.31
2022-11-24T07:06:47.895Z,100680.72
2022-11-24T07:09:15.484Z,100691.94
2022-11-24T07:11:45.850Z,100697.97
2022-11-24T07:14:13.428Z,100709.22
2022-11-24T07:16:41.422Z,100709.22
2022-11-24T07:19:10.572Z,100710.09
2022-11-24T07:21:38.215Z,100724.75
2022-11-24T07:24:06.298Z,100720.44
2022-11-24T07:26:37.479Z,100729.06
2022-11-24T07:29:06.343Z,100722.16
2022-11-24T07:31:34.217Z,100733.34
2022-11-24T07:34:01.870Z,100738.50
2022-11-24T07:36:29.684Z,100738.53
2022-11-24T07:38:57.302Z,100751.44
2022-11-24T07:41:24.895Z,100754.94
2022-11-24T07:43:53.037Z,100767.00
2022-11-24T07:46:21.328Z,100769.56
2022-11-24T07:48:49.078Z,100767.81
2022-11-24T07:51:16.968Z,100774.69
2022-11-24T07:53:44.694Z,100789.41
2022-11-24T07:56:12.669Z,100792.84
2022-11-24T07:58:40.424Z,100810.97
2022-11-24T08:01:15.923Z,100810.13
2022-11-24T08:03:44.456Z,100806.69
2022-11-24T08:06:25.136Z,100813.56
2022-11-24T08:08:55.768Z,100817.09
2022-11-24T08:11:23.575Z,100811.03
2022-11-24T08:13:51.108Z,100817.94
2022-11-24T08:16:20.478Z,100817.94
2022-11-24T08:18:54.735Z,100824.84
2022-11-24T08:21:23.348Z,100826.59
2022-11-24T08:23:51.468Z,100832.63
2022-11-24T08:26:19.386Z,100831.78
2022-11-24T08:28:48.204Z,100841.25
2022-11-24T08:31:18.576Z,100842.13
2022-11-24T08:33:46.870Z,100847.28
2022-11-24T08:36:17.064Z,100842.94
2022-11-24T08:38:45.260Z,100842.06
2022-11-24T08:41:15.855Z,100839.59
2022-11-24T08:43:43.850Z,100857.78
2022-11-24T08:46:14.385Z,100855.22
2022-11-24T08:48:42.091Z,100865.66
2022-11-24T08:51:12.264Z,100862.19
2022-11-24T08:53:40.800Z,100869.13
2022-11-24T08:56:10.022Z,100868.22
2022-11-24T08:58:38.607Z,100882.06
2022-11-24T09:01:14.882Z,100871.72
2022-11-24T09:03:49.939Z,100876.91
2022-11-24T09:06:22.633Z,100873.47
2022-11-24T09:08:50.347Z,100878.72
2022-11-24T09:11:18.573Z,100875.31
2022-11-24T09:13:46.574Z,100884.00
2022-11-24T09:16:22.778Z,100896.13
2022-11-24T09:19:06.502Z,100890.97
2022-11-24T09:21:37.797Z,100890.13
2022-11-24T09:24:06.434Z,100892.69
2022-11-24T09:26:36.957Z,100902.22
2022-11-24T09:29:07.958Z,100901.41
2022-11-24T09:31:37.335Z,100901.44
2022-11-24T09:34:07.129Z,100902.34
2022-11-24T09:36:35.359Z,100905.00
2022-11-24T09:39:03.027Z,100917.97
2022-11-24T09:41:51.913Z,100918.81
2022-11-24T09:44:31.220Z,100912.78
2022-11-24T09:46:59.737Z,100918.81
2022-11-24T09:49:51.233Z,100931.03
2022-11-24T09:52:34.809Z,100932.78
2022-11-24T09:55:06.151Z,100934.53
2022-11-24T09:57:37.891Z,100939.72
2022-11-24T10:00:14.198Z,100939.75
2022-11-24T10:02:41.733Z,100937.13
2022-11-24T10:05:09.622Z,100933.69
2022-11-24T10:07:48.288Z,100937.16
2022-11-24T10:10:25.485Z,100934.53
2022-11-24T10:13:36.419Z,100947.50
2022-11-24T10:16:27.018Z,100946.63
2022-11-24T10:19:06.507Z,100951.81
2022-11-24T10:21:38.148Z,100953.50
2022-11-24T10:24:33.269Z,100954.44
2022-11-24T10:27:19.406Z,100967.34
2022-11-24T10:29:52.459Z,100956.16
2022-11-24T10:32:29.082Z,100958.72
2022-11-24T10:35:07.393Z,100963.03
2022-11-24T10:37:41.433Z,100963.03
2022-11-24T10:40:56.842Z,100968.97
2022-11-24T10:43:27.951Z,100975.06
2022-11-24T10:46:26.205Z,100982.88
2022-11-24T10:49:06.167Z,100971.56
2022-11-24T10:51:36.979Z,100981.09
2022-11-24T10:54:19.385Z,100980.31
2022-11-24T10:56:48.292Z,100974.22
2022-11-24T10:59:30.771Z,100975.94
2022-11-24T11:01:58.425Z,100975.94
2022-11-24T11:04:29.949Z,100984.66
2022-11-24T11:07:20.755Z,100991.53
2022-11-24T11:09:49.632Z,100985.47
2022-11-24T11:12:45.048Z,100985.47
2022-11-24T11:15:25.944Z,100981.97
2022-11-24T11:17:58.534Z,100985.41
2022-11-24T11:20:30.498Z,100977.59
2022-11-24T11:23:00.364Z,100978.47
2022-11-24T11:25:31.736Z,100975.81
2022-11-24T11:28:18.432Z,100975.88
2022-11-24T11:31:16.654Z,100979.28
2022-11-24T11:34:03.881Z,100974.06
2022-11-24T11:36:34.102Z,100974.03
2022-11-24T11:39:01.782Z,100969.84
2022-11-24T11:41:34.858Z,100977.53
2022-11-24T11:44:15.239Z,100972.25
2022-11-24T11:46:44.759Z,100973.13
2022-11-24T11:49:13.357Z,100977.50
2022-11-24T11:51:56.648Z,100970.53
2022-11-24T11:54:38.118Z,100978.22
2022-11-24T11:57:12.389Z,100970.44
2022-11-24T11:59:56.766Z,100967.75
2022-11-24T12:02:40.764Z,100971.13
2022-11-24T12:05:35.190Z,100966.84
2022-11-24T12:08:20.781Z,100972.13
2022-11-24T12:11:05.647Z,100970.47
2022-11-24T12:13:49.094Z,100967.81
2022-11-24T12:16:35.537Z,100975.56
2022-11-24T12:19:28.472Z,100980.84
2022-11-24T12:22:18.094Z,100977.44
2022-11-24T12:25:02.943Z,100984.38
2022-11-24T12:27:38.932Z,100988.81
2022-11-24T12:30:22.024Z,100987.84
2022-11-24T12:33:01.615Z,100977.44
2022-11-24T12:35:41.027Z,100986.13
2022-11-24T12:38:17.000Z,100988.66
2022-11-24T12:41:33.528Z,100987.00
2022-11-24T12:43:58.773Z,100995.66
2022-11-24T12:46:47.886Z,101004.44
2022-11-24T12:49:38.581Z,101000.97
2022-11-24T12:52:21.730Z,101006.13
2022-11-24T12:54:49.260Z,100996.63
2022-11-24T12:57:27.428Z,101000.94
2022-11-24T13:00:08.970Z,100998.34
2022-11-24T13:02:52.293Z,101000.03
2022-11-24T13:05:42.688Z,100988.66
2022-11-24T13:08:10.602Z,100997.38
2022-11-24T13:10:55.861Z,100998.25
2022-11-24T13:13:29.021Z,100981.00
2022-11-24T13:16:36.101Z,100989.69
2022-11-24T13:19:12.785Z,100975.88
2022-11-24T13:21:45.488Z,100990.63
2022-11-24T13:24:20.002Z,100994.97
2022-11-24T13:27:16.194Z,100988.03
2022-11-24T13:29:47.836Z,100994.97
2022-11-24T13:32:15.393Z,100998.47
2022-11-24T13:34:43.375Z,100989.78
2022-11-24T13:37:31.784Z,100994.97
2022-11-24T13:40:13.116Z,100998.44
2022-11-24T13:42:56.086Z,100990.63
2022-11-24T13:45:42.032Z,100984.56
2022-11-24T13:48:22.527Z,100988.06
2022-11-24T13:50:54.025Z,100995.81
2022-11-24T13:53:41.937Z,100980.22
2022-11-24T13:56:15.141Z,100995.81
2022-11-24T13:58:45.012Z,100993.22
2022-11-24T14:01:19.091Z,101003.63
2022-11-24T14:04:21.667Z,100991.50
2022-11-24T14:06:48.777Z,100980.22
2022-11-24T14:09:27.890Z,100983.69
2022-11-24T14:12:04.391Z,100979.38
2022-11-24T14:14:31.994Z,100971.56
2022-11-24T14:17:15.231Z,100978.56
2022-11-24T14:19:44.783Z,100978.53
2022-11-24T14:22:17.199Z,100982.03
2022-11-24T14:24:46.201Z,100985.50
2022-11-24T14:27:17.679Z,100977.75
2022-11-24T14:29:56.745Z,100984.72
2022-11-24T14:32:24.773Z,100977.78
2022-11-24T14:34:54.123Z,100980.41
2022-11-24T14:37:21.852Z,100976.06
2022-11-24T14:39:49.560Z,100977.81
2022-11-24T14:42:18.928Z,100961.34
2022-11-24T14:44:54.141Z,100977.81
2022-11-24T14:47:30.574Z,100974.34
2022-11-24T14:50:08.797Z,100983.91
2022-11-24T14:52:36.857Z,100979.56
2022-11-24T14:55:21.826Z,100968.28
2022-11-24T14:57:50.612Z,100968.31
2022-11-24T15:00:33.317Z,100974.38
2022-11-24T15:03:03.677Z,100976.09
2022-11-24T15:06:02.298Z,100981.31
2022-11-24T15:08:43.248Z,100981.31
2022-11-24T15:11:10.848Z,100984.75
2022-11-24T15:13:39.316Z,100983.03
2022-11-24T15:16:17.707Z,100988.19
2022-11-24T15:18:48.025Z,100990.78
2022-11-24T15:21:19.575Z,101003.75
2022-11-24T15:24:14.631Z,101008.06
2022-11-24T15:26:42.541Z,101006.34
2022-11-24T15:29:11.420Z,101008.06
2022-11-24T15:31:40.533Z,101001.97
2022-11-24T15:34:10.439Z,101002.81
2022-11-24T15:36:38.023Z,101004.53
2022-11-24T15:39:05.541Z,100994.16
2022-11-24T15:41:34.221Z,101003.63
2022-11-24T15:44:01.840Z,101006.22
2022-11-24T15:46:37.623Z,100994.91
2022-11-24T15:49:05.824Z,100985.38
2022-11-24T15:51:33.804Z,100994.06
2022-11-24T15:54:01.691Z,100985.38
2022-11-24T15:56:36.340Z,100993.16
2022-11-24T15:59:04.721Z,100989.69
2022-11-24T16:01:33.852Z,101001.81
2022-11-24T16:04:02.840Z,101000.09
2022-11-24T16:06:30.602Z,100994.91
2022-11-24T16:08:59.191Z,100989.66
2022-11-24T16:11:26.837Z,100993.13
2022-11-24T16:13:54.750Z,100986.22
2022-11-24T16:16:24.712Z,100995.72
2022-11-24T16:18:52.660Z,100999.16
2022-11-24T16:21:20.238Z,100989.66
2022-11-24T16:23:48.779Z,100998.28
2022-11-24T16:26:16.411Z,101000.91
2022-11-24T16:28:45.209Z,101006.91
2022-11-24T16:31:15.661Z,100990.47
2022-11-24T16:33:44.724Z,101001.72
2022-11-24T16:36:12.520Z,100995.63
2022-11-24T16:38:40.127Z,100993.03
2022-11-24T16:41:11.100Z,101010.31
2022-11-24T16:43:39.284Z,101005.13
2022-11-24T16:46:09.933Z,100998.22
2022-11-24T16:48:37.871Z,100993.00
2022-11-24T16:51:10.158Z,101007.72
2022-11-24T16:53:38.209Z,101005.16
2022-11-24T16:56:05.980Z,101003.41
2022-11-24T16:58:33.761Z,101003.44
2022-11-24T17:01:08.860Z,101005.19
2022-11-24T17:03:37.490Z,101003.47
2022-11-24T17:06:08.205Z,101003.44
2022-11-24T17:08:37.525Z,100999.16
2022-11-24T17:11:09.112Z,100997.38
2022-11-24T17:13:36.708Z,100989.59
2022-11-24T17:16:06.510Z,100995.69
2022-11-24T17:18:35.052Z,100980.97
2022-11-24T17:21:09.244Z,100990.50
2022-11-24T17:23:37.296Z,100960.13
2022-11-24T17:26:16.076Z,100994.78
2022-11-24T17:28:44.543Z,100999.97
2022-11-24T17:31:26.438Z,100996.50
2022-11-24T17:33:56.270Z,100996.47
2022-11-24T17:36:24.724Z,100991.28
2022-11-24T17:38:52.588Z,100988.69
2022-11-24T17:41:21.097Z,100984.41
2022-11-24T17:43:52.944Z,100991.34
2022-11-24T17:46:20.802Z,100990.50
2022-11-24T17:48:48.460Z,100991.34
2022-11-24T17:51:18.707Z,100991.31
2022-11-24T17:53:49.815Z,100991.31
2022-11-24T17:56:23.478Z,100992.19
2022-11-24T17:58:55.987Z,100980.06
2022-11-24T18:01:24.336Z,100986.13
2022-11-24T18:03:53.657Z,100979.19
2022-11-24T18:06:24.938Z,100986.13
2022-11-24T18:08:54.004Z,100976.63
2022-11-24T18:11:30.475Z,100986.13
2022-11-24T18:14:02.138Z,100977.50
2022-11-24T18:16:32.321Z,100968.84
2022-11-24T18:19:08.873Z,100976.63
2022-11-24T18:21:41.662Z,100979.22
2022-11-24T18:24:11.309Z,100983.53
2022-11-24T18:26:40.250Z,100984.38
2022-11-24T18:29:08.086Z,100968.81
2022-11-24T18:31:36.310Z,100976.53
2022-11-24T18:34:06.070Z,100976.56
2022-11-24T18:36:34.460Z,100977.44
2022-11-24T18:39:06.617Z,100974.84
2022-11-24T18:41:34.826Z,100977.44
2022-11-24T18:44:03.276Z,100982.56
2022-11-24T18:46:30.908Z,100979.94
2022-11-24T18:48:58.479Z,100971.28
2022-11-24T18:51:27.140Z,100982.53
2022-11-24T18:53:57.969Z,100966.94
2022-11-24T18:56:26.138Z,100971.22
2022-11-24T18:58:55.267Z,100967.81
2022-11-24T19:01:26.237Z,100974.66
2022-11-24T19:03:57.496Z,100968.63
2022-11-24T19:06:33.915Z,100968.63
2022-11-24T19:09:14.880Z,100966.84
2022-11-24T19:11:45.673Z,100963.44
2022-11-24T19:14:16.346Z,100962.53
2022-11-24T19:16:44.717Z,100959.94
2022-11-24T19:19:13.576Z,100966.84
2022-11-24T19:21:41.989Z,100942.66
2022-11-24T19:24:10.962Z,100961.69
2022-11-24T19:26:39.451Z,100959.91
2022-11-24T19:29:08.017Z,100954.69
2022-11-24T19:31:36.119Z,100958.16
2022-11-24T19:34:05.467Z,100948.63
2022-11-24T19:36:33.354Z,100952.09
2022-11-24T19:39:00.960Z,100950.34
2022-11-24T19:41:32.638Z,100959.81
2022-11-24T19:44:00.783Z,100961.53
2022-11-24T19:46:30.181Z,100952.03
2022-11-24T19:49:00.473Z,100954.59
2022-11-24T19:51:31.344Z,100954.59
2022-11-24T19:53:59.431Z,100970.16
2022-11-24T19:56:29.403Z,100958.09
2022-11-24T19:58:57.588Z,100949.41
2022-11-24T20:01:28.098Z,100956.38
2022-11-24T20:04:03.731Z,100956.31
2022-11-24T20:06:33.760Z,100956.31
2022-11-24T20:09:02.054Z,100961.47
2022-11-24T20:11:30.173Z,100962.34
2022-11-24T20:13:58.279Z,100951.13
2022-11-24T20:16:29.633Z,100950.28
2022-11-24T20:19:02.035Z,100953.75
2022-11-24T20:21:31.874Z,100948.56
2022-11-24T20:24:05.363Z,100958.06
2022-11-24T20:26:35.888Z,100951.19
2022-11-24T20:29:04.297Z,100938.19
2022-11-24T20:31:34.836Z,100946.88
2022-11-24T20:34:04.947Z,100951.22
2022-11-24T20:36:34.476Z,100941.78
2022-11-24T20:39:05.287Z,100944.38
2022-11-24T20:41:35.232Z,100937.47
2022-11-24T20:44:07.238Z,100937.50
2022-11-24T20:46:37.706Z,100937.53
2022-11-24T20:49:07.180Z,100931.50
2022-11-24T20:51:39.067Z,100937.56
2022-11-24T20:54:09.570Z,100946.25
2022-11-24T20:56:39.811Z,100940.22
2022-11-24T20:59:07.857Z,100942.88
2022-11-24T21:01:40.763Z,100947.16
2022-11-24T21:04:10.099Z,100938.56
2022-11-24T21:06:38.089Z,100935.09
2022-11-24T21:09:07.933Z,100920.44
2022-11-24T21:11:36.032Z,100910.09
2022-11-24T21:14:03.745Z,100915.25
2022-11-24T21:16:33.594Z,100918.72
2022-11-24T21:19:04.576Z,100928.28
2022-11-24T21:21:35.172Z,100917.03
2022-11-24T21:24:07.611Z,100918.75
2022-11-24T21:26:39.074Z,100917.94
2022-11-24T21:29:07.595Z,100929.19
2022-11-24T21:31:39.403Z,100923.13
2022-11-24T21:34:08.477Z,100918.81
2022-11-24T21:36:40.692Z,100922.25
2022-11-24T21:39:08.408Z,100917.03
2022-11-24T21:41:35.969Z,100923.09
2022-11-24T21:44:03.675Z,100930.88
2022-11-24T21:46:39.023Z,100923.94
2022-11-24T21:49:10.062Z,100914.50
2022-11-24T21:51:37.591Z,100914.47
2022-11-24T21:54:05.623Z,100913.56
2022-11-24T21:56:33.127Z,100913.59
2022-11-24T21:59:00.688Z,100918.81
2022-11-24T22:01:29.500Z,100915.31
2022-11-24T22:03:57.309Z,100914.47
2022-11-24T22:06:24.895Z,100911.88
2022-11-24T22:08:52.420Z,100908.41
2022-11-24T22:11:22.682Z,100903.22
2022-11-24T22:13:51.553Z,100904.97
2022-11-24T22:16:24.754Z,100895.44
2022-11-24T22:18:52.880Z,100889.38
2022-11-24T22:21:23.847Z,100903.25
2022-11-24T22:23:52.492Z,100890.28
2022-11-24T22:26:22.406Z,100898.94
2022-11-24T22:28:50.672Z,100892.88
2022-11-24T22:31:21.063Z,100900.66
2022-11-24T22:33:49.757Z,100900.66
2022-11-24T22:36:18.704Z,100904.16
2022-11-24T22:38:46.187Z,100906.72
2022-11-24T22:41:16.444Z,100898.06
2022-11-24T22:43:45.168Z,100898.09
2022-11-24T22:46:21.495Z,100905.94
2022-11-24T22:48:50.296Z,100896.34
2022-11-24T22:51:20.966Z,100890.31
2022-11-24T22:53:49.929Z,100908.50
2022-11-24T22:56:18.180Z,100904.13
2022-11-24T22:58:45.704Z,100901.53
2022-11-24T23:01:16.133Z,100908.53
2022-11-24T23:03:44.294Z,100903.34
2022-11-24T23:06:20.410Z,100904.19
2022-11-24T23:08:48.820Z,100905.94
2022-11-24T23:11:23.741Z,100911.16
2022-11-24T23:13:56.701Z,100903.34
2022-11-24T23:16:25.189Z,100907.66
2022-11-24T23:18:54.167Z,100911.97
2022-11-24T23:21:24.464Z,100905.03
2022-11-24T23:23:52.804Z,100913.72
2022-11-24T23:26:23.189Z,100914.56
2022-11-24T23:28:50.723Z,100917.16
2022-11-24T23:31:21.495Z,100910.19
2022-11-24T23:33:49.172Z,100917.09
2022-11-24T23:36:18.776Z,100898.94
2022-11-24T23:38:46.770Z,100911.91
2022-11-24T23:41:26.229Z,100916.19
2022-11-24T23:43:53.987Z,100910.97
2022-11-24T23:46:24.212Z,100904.03
2022-11-24T23:48:53.321Z,100903.19
2022-11-24T23:51:26.756Z,100905.78
2022-11-24T23:53:54.822Z,100894.53
2022-11-24T23:56:26.964Z,100900.56
2022-11-24T23:58:55.148Z,100911.78
